createdAt,value
2018-11-05T00:01:38.425Z,13.10
2018-11-05T00:04:06.652Z,12.90
2018-11-05T00:06:34.853Z,12.90
2018-11-05T00:09:04.762Z,13.00
2018-11-05T00:11:32.956Z,13.40
2018-11-05T00:14:01.177Z,13.00
2018-11-05T00:16:29.259Z,13.00
2018-11-05T00:18:57.519Z,13.20
2018-11-05T00:21:25.661Z,13.10
2018-11-05T00:23:55.137Z,12.90
2018-11-05T00:26:23.314Z,13.00
2018-11-05T00:28:51.387Z,13.30
2018-11-05T00:31:19.549Z,13.20
2018-11-05T00:33:47.648Z,13.30
2018-11-05T00:36:15.748Z,13.40
2018-11-05T00:38:44.022Z,13.50
2018-11-05T00:41:12.113Z,13.20
2018-11-05T00:43:40.195Z,13.00
2018-11-05T00:46:08.680Z,13.00
2018-11-05T00:48:36.797Z,13.20
2018-11-05T00:51:05.134Z,12.80
2018-11-05T00:53:33.226Z,13.00
2018-11-05T00:56:01.318Z,13.00
2018-11-05T00:58:36.351Z,13.20
2018-11-05T01:01:05.252Z,13.30
2018-11-05T01:03:33.371Z,13.40
2018-11-05T01:06:01.525Z,13.20
2018-11-05T01:08:29.596Z,12.90
2018-11-05T01:10:57.652Z,13.00
2018-11-05T01:13:25.773Z,13.20
2018-11-05T01:15:53.909Z,13.30
2018-11-05T01:18:21.930Z,12.80
2018-11-05T01:20:50.023Z,13.30
2018-11-05T01:23:18.141Z,13.10
2018-11-05T01:25:46.219Z,13.10
2018-11-05T01:28:14.328Z,12.60
2018-11-05T01:30:42.373Z,12.80
2018-11-05T01:33:10.446Z,13.00
2018-11-05T01:35:38.609Z,13.50
2018-11-05T01:38:06.691Z,13.30
2018-11-05T01:40:34.825Z,13.00
2018-11-05T01:43:02.891Z,13.20
2018-11-05T01:45:30.985Z,13.20
2018-11-05T01:47:59.004Z,12.90
2018-11-05T01:50:27.102Z,12.90
2018-11-05T01:52:55.156Z,13.00
2018-11-05T01:55:23.310Z,13.20
2018-11-05T01:57:51.391Z,13.10
2018-11-05T02:00:19.442Z,12.80
2018-11-05T02:02:47.538Z,13.00
2018-11-05T02:05:15.695Z,13.20
2018-11-05T02:07:44.543Z,13.40
2018-11-05T02:10:14.081Z,12.90
2018-11-05T02:12:42.054Z,13.20
2018-11-05T02:15:10.631Z,13.20
2018-11-05T02:17:39.745Z,13.20
2018-11-05T02:20:08.013Z,13.20
2018-11-05T02:22:36.311Z,13.30
2018-11-05T02:25:05.445Z,13.10
2018-11-05T02:27:33.568Z,13.40
2018-11-05T02:30:01.592Z,13.20
2018-11-05T02:32:29.746Z,13.00
2018-11-05T02:34:57.753Z,13.10
2018-11-05T02:37:25.821Z,13.30
2018-11-05T02:39:53.884Z,13.30
2018-11-05T02:44:58.816Z,13.30
2018-11-05T02:47:26.954Z,13.50
2018-11-05T02:49:55.086Z,13.40
2018-11-05T02:52:23.145Z,13.50
2018-11-05T02:54:51.164Z,13.50
2018-11-05T02:57:19.249Z,13.80
2018-11-05T02:59:47.258Z,13.80
2018-11-05T03:02:15.619Z,13.90
2018-11-05T03:04:43.674Z,13.80
2018-11-05T03:07:11.692Z,13.90
2018-11-05T03:09:39.784Z,13.90
2018-11-05T03:12:07.856Z,13.60
2018-11-05T03:14:35.918Z,13.20
2018-11-05T03:17:04.417Z,13.40
2018-11-05T03:19:32.447Z,13.20
2018-11-05T03:22:00.547Z,13.30
2018-11-05T03:24:28.625Z,13.20
2018-11-05T03:26:56.757Z,13.10
2018-11-05T03:29:24.804Z,13.30
2018-11-05T03:31:52.823Z,13.50
2018-11-05T03:34:20.902Z,13.70
2018-11-05T03:36:48.999Z,13.70
2018-11-05T03:39:17.035Z,13.60
2018-11-05T03:41:45.090Z,13.10
2018-11-05T03:44:13.206Z,13.20
2018-11-05T03:46:41.332Z,13.60
2018-11-05T03:49:09.981Z,13.50
2018-11-05T03:51:38.024Z,13.70
2018-11-05T03:54:06.994Z,13.40
2018-11-05T03:56:35.274Z,13.50
2018-11-05T03:59:03.233Z,13.50
2018-11-05T04:01:31.275Z,13.40
2018-11-05T04:03:59.337Z,13.40
2018-11-05T04:06:27.454Z,13.00
2018-11-05T04:08:55.557Z,13.30
2018-11-05T04:11:23.628Z,13.00
2018-11-05T04:13:51.765Z,13.60
2018-11-05T04:16:19.894Z,13.20
2018-11-05T04:18:47.928Z,12.70
2018-11-05T04:21:16.050Z,12.90
2018-11-05T04:23:44.083Z,13.40
2018-11-05T04:26:12.134Z,13.10
2018-11-05T04:28:40.154Z,13.20
2018-11-05T04:31:08.456Z,13.40
2018-11-05T04:33:36.591Z,13.20
2018-11-05T04:36:05.165Z,13.30
2018-11-05T04:38:33.282Z,13.50
2018-11-05T04:41:01.339Z,13.40
2018-11-05T04:43:29.459Z,13.60
2018-11-05T04:45:57.565Z,13.20
2018-11-05T04:48:25.653Z,13.10
2018-11-05T04:50:53.648Z,13.50
2018-11-05T04:53:21.759Z,13.80
2018-11-05T04:55:49.761Z,13.40
2018-11-05T04:58:17.907Z,13.30
2018-11-05T05:00:45.955Z,13.20
2018-11-05T05:03:14.026Z,13.40
2018-11-05T05:05:42.177Z,13.40
2018-11-05T05:08:10.270Z,13.30
2018-11-05T05:10:38.304Z,13.50
2018-11-05T05:13:06.415Z,13.70
2018-11-05T05:15:34.621Z,13.70
2018-11-05T05:18:02.759Z,13.50
2018-11-05T05:20:30.829Z,13.30
2018-11-05T05:22:59.002Z,13.60
2018-11-05T05:25:26.951Z,13.40
2018-11-05T05:27:54.953Z,13.40
2018-11-05T05:30:23.081Z,13.20
2018-11-05T05:32:51.223Z,13.40
2018-11-05T05:35:20.193Z,13.30
2018-11-05T05:37:48.352Z,13.80
2018-11-05T05:40:16.476Z,13.80
2018-11-05T05:42:44.599Z,13.70
2018-11-05T05:45:12.825Z,13.90
2018-11-05T05:47:41.468Z,14.00
2018-11-05T05:50:12.649Z,13.80
2018-11-05T05:52:41.828Z,14.00
2018-11-05T05:55:09.919Z,13.90
2018-11-05T05:57:38.260Z,14.00
2018-11-05T06:00:10.898Z,13.90
2018-11-05T06:02:39.430Z,13.70
2018-11-05T06:05:08.951Z,13.80
2018-11-05T06:07:37.298Z,14.00
2018-11-05T06:10:05.879Z,13.80
2018-11-05T06:12:33.983Z,14.10
2018-11-05T06:15:02.121Z,14.30
2018-11-05T06:17:30.280Z,14.20
2018-11-05T06:19:58.360Z,14.10
2018-11-05T06:22:26.492Z,14.00
2018-11-05T06:24:54.721Z,14.00
2018-11-05T06:27:22.824Z,13.90
2018-11-05T06:29:51.225Z,13.80
2018-11-05T06:32:19.278Z,14.00
2018-11-05T06:34:47.390Z,13.60
2018-11-05T06:37:15.468Z,14.00
2018-11-05T06:39:43.643Z,13.60
2018-11-05T06:42:11.753Z,13.90
2018-11-05T06:44:39.931Z,14.00
2018-11-05T06:47:07.959Z,14.00
2018-11-05T06:49:36.245Z,13.80
2018-11-05T06:52:04.510Z,13.70
2018-11-05T06:54:32.598Z,13.80
2018-11-05T06:57:00.755Z,13.70
2018-11-05T06:59:28.839Z,13.90
2018-11-05T07:01:57.010Z,14.00
2018-11-05T07:04:25.177Z,14.10
2018-11-05T07:06:53.354Z,13.90
2018-11-05T07:09:21.431Z,14.20
2018-11-05T07:11:49.482Z,14.40
2018-11-05T07:14:17.544Z,14.30
2018-11-05T07:16:45.668Z,14.20
2018-11-05T07:19:13.959Z,13.90
2018-11-05T07:21:41.899Z,14.00
2018-11-05T07:24:09.958Z,14.00
2018-11-05T07:26:38.119Z,14.00
2018-11-05T07:29:06.156Z,13.80
2018-11-05T07:31:34.324Z,13.80
2018-11-05T07:34:02.653Z,14.10
2018-11-05T07:36:30.512Z,14.20
2018-11-05T07:38:58.658Z,14.10
2018-11-05T07:41:26.688Z,14.30
2018-11-05T07:43:54.746Z,14.00
2018-11-05T07:46:22.822Z,13.80
2018-11-05T07:48:50.902Z,14.10
2018-11-05T07:51:19.022Z,13.70
2018-11-05T07:53:47.110Z,13.90
2018-11-05T07:56:15.220Z,14.00
2018-11-05T07:58:43.242Z,14.30
2018-11-05T08:01:11.425Z,14.30
2018-11-05T08:03:39.547Z,14.00
2018-11-05T08:06:07.699Z,13.80
2018-11-05T08:08:35.779Z,14.30
2018-11-05T08:11:03.956Z,14.30
2018-11-05T08:13:32.033Z,14.20
2018-11-05T08:16:00.127Z,14.60
2018-11-05T08:18:28.194Z,14.40
2018-11-05T08:20:56.296Z,14.30
2018-11-05T08:23:24.498Z,14.10
2018-11-05T08:25:52.625Z,14.10
2018-11-05T08:28:20.694Z,14.40
2018-11-05T08:30:48.993Z,14.50
2018-11-05T08:33:17.054Z,14.70
2018-11-05T08:35:45.139Z,15.30
2018-11-05T08:38:13.178Z,15.80
2018-11-05T08:40:41.304Z,15.40
2018-11-05T08:43:09.393Z,15.00
2018-11-05T08:45:37.469Z,14.40
2018-11-05T08:48:05.603Z,14.70
2018-11-05T08:50:33.787Z,15.20
2018-11-05T08:53:01.809Z,15.60
2018-11-05T08:55:29.897Z,15.00
2018-11-05T08:57:58.122Z,16.00
2018-11-05T09:00:31.944Z,16.20
2018-11-05T09:03:00.060Z,16.50
2018-11-05T09:05:28.149Z,16.00
2018-11-05T09:07:56.512Z,16.00
2018-11-05T09:10:24.851Z,15.70
2018-11-05T09:12:52.843Z,15.50
2018-11-05T09:15:21.757Z,15.30
2018-11-05T09:17:50.074Z,14.90
2018-11-05T09:20:18.925Z,14.60
2018-11-05T09:22:47.717Z,14.10
2018-11-05T09:25:16.386Z,14.60
2018-11-05T09:27:44.465Z,15.00
2018-11-05T09:30:18.809Z,15.80
2018-11-05T09:32:47.275Z,15.10
2018-11-05T09:35:15.590Z,14.80
2018-11-05T09:37:43.788Z,15.20
2018-11-05T09:40:15.095Z,15.10
2018-11-05T09:42:43.826Z,15.00
2018-11-05T09:45:19.261Z,15.00
2018-11-05T09:47:47.583Z,15.10
2018-11-05T09:50:16.364Z,15.90
2018-11-05T09:52:44.474Z,15.60
2018-11-05T09:55:13.193Z,16.20
2018-11-05T09:57:43.043Z,15.40
2018-11-05T10:00:17.889Z,16.00
2018-11-05T10:02:51.815Z,16.80
2018-11-05T10:05:19.941Z,16.60
2018-11-05T10:07:47.962Z,16.50
2018-11-05T10:10:16.849Z,16.60
2018-11-05T10:12:45.036Z,16.60
2018-11-05T10:15:14.457Z,17.00
2018-11-05T10:17:42.648Z,16.80
2018-11-05T10:20:16.688Z,15.90
2018-11-05T10:22:45.462Z,16.10
2018-11-05T10:25:14.273Z,15.40
2018-11-05T10:27:42.205Z,15.80
2018-11-05T10:30:18.994Z,15.40
2018-11-05T10:32:47.155Z,16.00
2018-11-05T10:35:15.965Z,15.90
2018-11-05T10:37:44.143Z,16.50
2018-11-05T10:40:15.831Z,16.30
2018-11-05T10:42:44.937Z,17.00
2018-11-05T10:45:14.247Z,16.20
2018-11-05T10:47:42.337Z,15.60
2018-11-05T10:50:12.218Z,16.60
2018-11-05T10:52:40.258Z,16.10
2018-11-05T10:55:08.705Z,16.50
2018-11-05T10:57:36.968Z,16.60
2018-11-05T11:00:17.756Z,16.50
2018-11-05T11:02:51.571Z,16.00
2018-11-05T11:05:20.149Z,16.60
2018-11-05T11:07:48.228Z,17.70
2018-11-05T11:10:16.443Z,16.30
2018-11-05T11:12:44.500Z,16.50
2018-11-05T11:15:12.748Z,16.50
2018-11-05T11:17:40.909Z,17.40
2018-11-05T11:20:11.034Z,18.20
2018-11-05T11:22:39.192Z,18.00
2018-11-05T11:25:08.108Z,18.40
2018-11-05T11:27:36.361Z,18.60
2018-11-05T11:30:06.020Z,17.40
2018-11-05T11:32:34.187Z,18.10
2018-11-05T11:35:02.253Z,18.30
2018-11-05T11:37:30.332Z,18.70
2018-11-05T11:39:58.434Z,17.40
2018-11-05T11:42:26.817Z,16.60
2018-11-05T11:44:55.042Z,17.90
2018-11-05T11:47:23.461Z,17.70
2018-11-05T11:49:51.543Z,18.20
2018-11-05T11:52:19.692Z,17.30
2018-11-05T11:54:47.727Z,18.00
2018-11-05T11:57:15.787Z,17.60
2018-11-05T11:59:43.993Z,18.00
2018-11-05T12:02:15.983Z,17.60
2018-11-05T12:04:44.242Z,18.10
2018-11-05T12:07:12.856Z,17.80
2018-11-05T12:09:40.939Z,17.90
2018-11-05T12:12:10.556Z,17.50
2018-11-05T12:14:39.038Z,18.20
2018-11-05T12:17:07.132Z,18.20
2018-11-05T12:19:35.313Z,18.40
2018-11-05T12:22:03.505Z,18.10
2018-11-05T12:24:31.817Z,18.30
2018-11-05T12:27:00.001Z,19.00
2018-11-05T12:29:28.463Z,18.20
2018-11-05T12:31:56.611Z,18.20
2018-11-05T12:34:24.782Z,18.60
2018-11-05T12:36:52.898Z,19.00
2018-11-05T12:39:20.957Z,18.70
2018-11-05T12:41:49.137Z,19.00
2018-11-05T12:44:17.312Z,18.90
2018-11-05T12:46:45.426Z,19.10
2018-11-05T12:49:13.562Z,18.20
2018-11-05T12:51:41.694Z,18.90
2018-11-05T12:54:09.798Z,18.90
2018-11-05T12:56:37.883Z,19.10
2018-11-05T12:59:06.047Z,18.20
2018-11-05T13:01:34.192Z,18.90
2018-11-05T13:04:02.335Z,19.00
2018-11-05T13:06:30.531Z,19.10
2018-11-05T13:08:58.630Z,18.20
2018-11-05T13:11:26.811Z,18.00
2018-11-05T13:13:54.896Z,18.60
2018-11-05T13:16:22.976Z,18.80
2018-11-05T13:18:51.227Z,18.80
2018-11-05T13:21:19.480Z,18.00
2018-11-05T13:23:47.659Z,18.70
2018-11-05T13:26:16.146Z,19.10
2018-11-05T13:28:44.350Z,19.20
2018-11-05T13:31:12.437Z,19.00
2018-11-05T13:33:40.547Z,18.60
2018-11-05T13:36:08.985Z,18.80
2018-11-05T13:38:37.160Z,19.10
2018-11-05T13:41:05.879Z,18.30
2018-11-05T13:43:34.098Z,19.60
2018-11-05T13:46:02.579Z,18.50
2018-11-05T13:48:30.892Z,19.50
2018-11-05T13:50:58.400Z,18.80
2018-11-05T13:53:26.519Z,18.40
2018-11-05T13:55:54.580Z,19.50
2018-11-05T13:58:22.746Z,19.90
2018-11-05T14:00:50.761Z,19.10
2018-11-05T14:03:18.854Z,18.90
2018-11-05T14:05:46.977Z,18.60
2018-11-05T14:08:15.081Z,19.10
2018-11-05T14:10:43.312Z,19.20
2018-11-05T14:13:11.357Z,19.10
2018-11-05T14:15:39.498Z,18.50
2018-11-05T14:18:07.614Z,18.70
2018-11-05T14:20:35.804Z,18.60
2018-11-05T14:23:04.507Z,19.30
2018-11-05T14:25:32.784Z,18.80
2018-11-05T14:28:01.173Z,19.30
2018-11-05T14:30:28.852Z,19.50
2018-11-05T14:32:56.903Z,19.90
2018-11-05T14:35:24.959Z,19.80
2018-11-05T14:37:53.044Z,19.70
2018-11-05T14:40:21.175Z,19.70
2018-11-05T14:42:49.341Z,19.60
2018-11-05T14:45:19.038Z,19.70
2018-11-05T14:47:47.787Z,19.50
2018-11-05T14:50:17.900Z,18.90
2018-11-05T14:52:46.089Z,18.70
2018-11-05T14:55:16.287Z,18.20
2018-11-05T14:57:45.356Z,18.80
2018-11-05T15:00:16.265Z,19.20
2018-11-05T15:02:45.640Z,19.10
2018-11-05T15:05:14.439Z,18.60
2018-11-05T15:07:43.774Z,18.00
2018-11-05T15:10:17.205Z,18.00
2018-11-05T15:12:45.423Z,17.60
2018-11-05T15:15:14.298Z,17.90
2018-11-05T15:17:42.978Z,17.90
2018-11-05T15:20:12.945Z,17.90
2018-11-05T15:22:41.308Z,18.00
2018-11-05T15:25:09.985Z,17.90
2018-11-05T15:27:38.685Z,18.00
2018-11-05T15:30:10.482Z,17.60
2018-11-05T15:32:39.424Z,17.80
2018-11-05T15:35:07.707Z,17.80
2018-11-05T15:37:36.412Z,17.60
2018-11-05T15:40:05.064Z,17.50
2018-11-05T15:42:33.264Z,17.40
2018-11-05T15:45:01.376Z,17.40
2018-11-05T15:47:29.548Z,17.30
2018-11-05T15:49:57.786Z,17.20
2018-11-05T15:52:26.275Z,17.20
2018-11-05T15:54:54.026Z,17.10
2018-11-05T15:57:22.169Z,17.10
2018-11-05T15:59:50.482Z,17.00
2018-11-05T16:02:18.699Z,16.80
2018-11-05T16:04:46.892Z,16.80
2018-11-05T16:07:14.983Z,16.90
2018-11-05T16:09:43.140Z,16.80
2018-11-05T16:12:11.231Z,16.80
2018-11-05T16:14:39.529Z,16.90
2018-11-05T16:17:07.786Z,16.80
2018-11-05T16:19:36.049Z,16.80
2018-11-05T16:22:04.397Z,16.80
2018-11-05T16:24:32.817Z,16.70
2018-11-05T16:27:00.969Z,16.80
2018-11-05T16:29:29.128Z,16.60
2018-11-05T16:31:57.241Z,16.70
2018-11-05T16:34:25.414Z,16.60
2018-11-05T16:36:53.642Z,16.60
2018-11-05T16:42:09.191Z,16.60
2018-11-05T16:44:37.399Z,16.60
2018-11-05T16:47:05.640Z,16.60
2018-11-05T16:49:33.856Z,16.60
2018-11-05T16:52:02.090Z,16.60
2018-11-05T16:54:30.433Z,16.70
2018-11-05T16:56:58.611Z,16.70
2018-11-05T16:59:26.975Z,16.60
2018-11-05T17:01:55.536Z,16.60
2018-11-05T17:04:23.515Z,16.50
2018-11-05T17:06:51.681Z,16.60
2018-11-05T17:09:19.887Z,16.40
2018-11-05T17:11:48.094Z,16.40
2018-11-05T17:14:16.209Z,16.40
2018-11-05T17:16:44.382Z,16.50
2018-11-05T17:19:12.846Z,16.50
2018-11-05T17:21:41.018Z,16.50
2018-11-05T17:24:09.879Z,16.40
2018-11-05T17:26:38.163Z,16.40
2018-11-05T17:29:06.362Z,16.40
2018-11-05T17:31:34.615Z,16.30
2018-11-05T17:34:02.883Z,16.20
2018-11-05T17:36:31.141Z,16.30
2018-11-05T17:38:59.288Z,16.20
2018-11-05T17:41:27.661Z,16.30
2018-11-05T17:43:55.836Z,16.30
2018-11-05T17:46:24.001Z,16.40
2018-11-05T17:48:52.232Z,16.30
2018-11-05T17:51:20.517Z,16.20
2018-11-05T17:53:48.658Z,16.20
2018-11-05T17:56:16.931Z,16.20
2018-11-05T17:58:45.081Z,16.10
2018-11-05T18:01:13.239Z,16.00
2018-11-05T18:03:41.536Z,16.00
2018-11-05T18:06:09.718Z,15.80
2018-11-05T18:08:38.133Z,15.80
2018-11-05T18:11:06.400Z,15.80
2018-11-05T18:13:34.728Z,15.80
2018-11-05T18:16:02.982Z,15.60
2018-11-05T18:18:31.182Z,15.40
2018-11-05T18:20:59.511Z,15.20
2018-11-05T18:23:27.934Z,15.20
2018-11-05T18:25:56.213Z,15.10
2018-11-05T18:28:24.511Z,15.10
2018-11-05T18:30:52.851Z,14.80
2018-11-05T18:33:21.018Z,14.60
2018-11-05T18:35:49.308Z,14.50
2018-11-05T18:38:17.569Z,14.40
2018-11-05T18:40:45.834Z,14.30
2018-11-05T18:43:14.072Z,14.20
2018-11-05T18:45:42.366Z,14.00
2018-11-05T18:48:10.552Z,13.80
2018-11-05T18:50:38.960Z,13.70
2018-11-05T18:53:07.506Z,13.80
2018-11-05T18:55:35.906Z,13.90
2018-11-05T18:58:04.255Z,13.70
2018-11-05T19:00:32.693Z,13.60
2018-11-05T19:03:01.172Z,13.60
2018-11-05T19:05:30.146Z,13.50
2018-11-05T19:07:58.545Z,13.40
2018-11-05T19:10:26.849Z,13.50
2018-11-05T19:12:55.130Z,13.50
2018-11-05T19:15:23.453Z,13.40
2018-11-05T19:17:51.814Z,13.40
2018-11-05T19:20:20.174Z,13.30
2018-11-05T19:22:48.511Z,13.10
2018-11-05T19:25:17.658Z,13.00
2018-11-05T19:27:46.041Z,12.90
2018-11-05T19:30:18.977Z,12.80
2018-11-05T19:32:47.245Z,12.70
2018-11-05T19:35:15.550Z,12.70
2018-11-05T19:37:44.067Z,12.60
2018-11-05T19:40:13.279Z,12.30
2018-11-05T19:42:42.630Z,12.10
2018-11-05T19:45:13.307Z,12.30
2018-11-05T19:47:41.693Z,12.40
2018-11-05T19:50:13.001Z,12.40
2018-11-05T19:52:42.589Z,12.40
2018-11-05T19:55:12.204Z,12.20
2018-11-05T19:57:41.616Z,12.00
2018-11-05T20:00:15.070Z,12.20
2018-11-05T20:02:43.980Z,12.10
2018-11-05T20:05:12.908Z,12.20
2018-11-05T20:07:41.297Z,12.10
2018-11-05T20:10:10.540Z,12.10
2018-11-05T20:12:39.233Z,11.80
2018-11-05T20:15:08.601Z,11.70
2018-11-05T20:17:38.294Z,11.80
2018-11-05T20:20:08.989Z,11.90
2018-11-05T20:22:37.392Z,11.90
2018-11-05T20:25:07.120Z,11.90
2018-11-05T20:27:35.940Z,11.80
2018-11-05T20:30:05.622Z,11.70
2018-11-05T20:32:34.194Z,11.40
2018-11-05T20:35:02.124Z,11.30
2018-11-05T20:37:30.491Z,11.40
2018-11-05T20:39:59.114Z,11.40
2018-11-05T20:42:27.368Z,11.30
2018-11-05T20:44:55.701Z,11.40
2018-11-05T20:47:23.997Z,11.40
2018-11-05T20:49:52.539Z,11.60
2018-11-05T20:52:20.893Z,11.30
2018-11-05T20:54:49.149Z,11.30
2018-11-05T20:57:17.374Z,11.50
2018-11-05T20:59:45.617Z,11.50
2018-11-05T21:02:13.985Z,11.30
2018-11-05T21:04:42.306Z,11.10
2018-11-05T21:07:10.639Z,11.00
2018-11-05T21:09:39.174Z,11.00
2018-11-05T21:12:07.440Z,11.20
2018-11-05T21:14:35.741Z,11.30
2018-11-05T21:17:04.145Z,11.20
2018-11-05T21:19:32.415Z,11.00
2018-11-05T21:22:00.787Z,10.90
2018-11-05T21:24:29.025Z,11.00
2018-11-05T21:26:57.235Z,10.70
2018-11-05T21:29:25.741Z,10.80
2018-11-05T21:31:53.996Z,10.50
2018-11-05T21:34:22.225Z,10.40
2018-11-05T21:36:50.517Z,10.60
2018-11-05T21:39:18.964Z,10.70
2018-11-05T21:41:47.243Z,10.60
2018-11-05T21:44:15.474Z,10.40
2018-11-05T21:46:43.850Z,10.30
2018-11-05T21:49:12.485Z,10.40
2018-11-05T21:51:40.733Z,10.50
2018-11-05T21:54:09.007Z,10.40
2018-11-05T21:56:37.275Z,10.40
2018-11-05T21:59:05.605Z,10.30
2018-11-05T22:01:33.775Z,10.20
2018-11-05T22:04:01.981Z,10.30
2018-11-05T22:06:30.195Z,10.40
2018-11-05T22:08:58.458Z,10.30
2018-11-05T22:11:26.663Z,10.20
2018-11-05T22:13:54.889Z,10.10
2018-11-05T22:16:23.016Z,10.20
2018-11-05T22:18:51.201Z,10.20
2018-11-05T22:21:19.471Z,10.00
2018-11-05T22:23:48.350Z,10.10
2018-11-05T22:26:16.605Z,10.20
2018-11-05T22:28:44.827Z,10.40
2018-11-05T22:31:13.040Z,10.40
2018-11-05T22:33:41.157Z,10.40
2018-11-05T22:36:09.335Z,10.40
2018-11-05T22:38:37.604Z,10.30
2018-11-05T22:41:06.744Z,10.20
2018-11-05T22:43:35.035Z,10.20
2018-11-05T22:46:03.293Z,10.20
2018-11-05T22:48:31.521Z,10.20
2018-11-05T22:50:59.695Z,10.20
2018-11-05T22:53:28.039Z,10.10
2018-11-05T22:55:56.064Z,9.80
2018-11-05T22:58:24.331Z,9.90
2018-11-05T23:00:58.310Z,10.40
2018-11-05T23:03:26.493Z,10.30
2018-11-05T23:05:54.831Z,10.30
2018-11-05T23:08:22.961Z,10.50
2018-11-05T23:10:51.148Z,10.70
2018-11-05T23:13:19.279Z,10.70
2018-11-05T23:15:47.521Z,10.80
2018-11-05T23:18:15.659Z,10.20
2018-11-05T23:20:43.810Z,9.80
2018-11-05T23:23:13.900Z,9.60
2018-11-05T23:25:42.062Z,9.50
2018-11-05T23:28:10.385Z,9.50
2018-11-05T23:30:38.462Z,9.50
2018-11-05T23:33:06.866Z,9.50
2018-11-05T23:35:35.014Z,9.40
2018-11-05T23:38:03.663Z,9.50
2018-11-05T23:40:31.843Z,9.40
2018-11-05T23:42:59.953Z,9.10
2018-11-05T23:45:28.127Z,8.90
2018-11-05T23:47:56.223Z,8.80
2018-11-05T23:50:24.342Z,8.90
2018-11-05T23:52:52.544Z,8.80
2018-11-05T23:55:20.690Z,8.80
2018-11-05T23:57:48.791Z,8.80
